Time;durP1;ratioP1;P1;durP2;ratioP2;P2;SDS_P1;SDS_P2;PMS_P1;PMS_P2;Temp;Humidity;BMP_temperature;BMP_pressure;BME280_temperature;BME280_humidity;BME280_pressure;Samples;Min_cycle;Max_cycle;Signal;HPM_P1;HPM_P2
2021/12/07 00:02:10;;;;;;;6.45;2.67;;;;;;;;;;5036154;28;20069;-73
2021/12/07 00:04:37;;;;;;;5.28;2.45;;;;;;;;;;5035914;28;20029;-72
2021/12/07 00:07:05;;;;;;;4.90;2.33;;;;;;;;;;5035832;28;20029;-73
2021/12/07 00:09:30;;;;;;;6.38;3.15;;;;;;;;;;5035846;28;20030;-74
2021/12/07 00:11:56;;;;;;;7.57;3.22;;;;;;;;;;5036086;28;20029;-72
2021/12/07 00:14:26;;;;;;;6.68;3.03;;;;;;;;;;5035720;28;20401;-74
2021/12/07 00:16:55;;;;;;;6.55;2.80;;;;;;;;;;5035574;28;20478;-72
2021/12/07 00:19:21;;;;;;;6.50;3.00;;;;;;;;;;5036020;28;20476;-73
2021/12/07 00:21:47;;;;;;;6.00;3.00;;;;;;;;;;5035697;28;20489;-74
2021/12/07 00:24:14;;;;;;;7.40;3.17;;;;;;;;;;5034751;28;20454;-74
2021/12/07 00:26:41;;;;;;;8.25;3.33;;;;;;;;;;5035343;28;20032;-73
2021/12/07 00:29:08;;;;;;;6.82;3.20;;;;;;;;;;5035645;28;20034;-74
2021/12/07 00:31:42;;;;;;;7.05;3.42;;;;;;;;;;5027115;28;20516;-73
2021/12/07 00:36:38;;;;;;;6.70;3.00;;;;;;;;;;5035129;28;20470;-74
2021/12/07 00:39:07;;;;;;;8.90;2.95;;;;;;;;;;5035429;28;20037;-75
2021/12/07 00:41:33;;;;;;;7.07;3.03;;;;;;;;;;5034693;28;20033;-72
2021/12/07 00:43:58;;;;;;;6.28;3.13;;;;;;;;;;5035202;28;20041;-72
2021/12/07 00:46:26;;;;;;;7.43;3.00;;;;;;;;;;5035096;28;20048;-72
2021/12/07 00:48:52;;;;;;;7.50;3.25;;;;;;;;;;5035092;28;20029;-75
2021/12/07 00:51:17;;;;;;;6.63;2.90;;;;;;;;;;5035114;28;20490;-72
2021/12/07 00:53:43;;;;;;;5.97;3.15;;;;;;;;;;5034048;28;20030;-72
2021/12/07 00:56:09;;;;;;;6.72;2.90;;;;;;;;;;5034835;28;20357;-73
2021/12/07 00:58:35;;;;;;;6.03;2.85;;;;;;;;;;5034865;28;20037;-71
2021/12/07 01:01:08;;;;;;;5.53;2.58;;;;;;;;;;5034981;28;20033;-74
2021/12/07 01:03:35;;;;;;;5.28;2.70;;;;;;;;;;5034843;28;20037;-72
2021/12/07 01:06:47;;;;;;;5.75;2.58;;;;;;;;;;5034900;28;20049;-75
2021/12/07 01:09:41;;;;;;;5.15;2.63;;;;;;;;;;5029320;28;20372;-73
2021/12/07 01:25:50;;;;;;;7.13;2.40;;;;;;;;;;5034749;28;20044;-72
2021/12/07 01:36:09;;;;;;;6.93;2.47;;;;;;;;;;5034186;28;20030;-73
2021/12/07 01:41:32;;;;;;;12.02;2.47;;;;;;;;;;5034279;28;20081;-71
2021/12/07 01:46:44;;;;;;;4.80;2.28;;;;;;;;;;5033856;28;20104;-72
2021/12/07 01:52:37;;;;;;;4.68;2.40;;;;;;;;;;5033710;28;20103;-72
2021/12/07 01:58:05;;;;;;;4.97;2.47;;;;;;;;;;5033752;28;20043;-74
2021/12/07 02:00:34;;;;;;;5.45;2.50;;;;;;;;;;5034057;28;20033;-70
2021/12/07 02:03:00;;;;;;;6.75;2.70;;;;;;;;;;5033664;28;20040;-72
2021/12/07 02:05:26;;;;;;;7.68;2.63;;;;;;;;;;5033732;28;20026;-71
2021/12/07 02:07:52;;;;;;;8.02;3.33;;;;;;;;;;5033734;28;20112;-72
2021/12/07 02:10:22;;;;;;;8.75;3.40;;;;;;;;;;5033864;28;20091;-71
2021/12/07 02:12:50;;;;;;;10.55;3.70;;;;;;;;;;5033252;28;20439;-75
2021/12/07 02:15:24;;;;;;;10.02;3.67;;;;;;;;;;5032403;28;20136;-72
2021/12/07 02:17:51;;;;;;;7.72;3.35;;;;;;;;;;5032507;28;20443;-70
2021/12/07 02:20:18;;;;;;;9.13;2.85;;;;;;;;;;5033604;28;20033;-71
2021/12/07 02:22:45;;;;;;;7.68;3.10;;;;;;;;;;5033242;28;20029;-71
2021/12/07 02:25:13;;;;;;;8.98;3.30;;;;;;;;;;5033512;28;20025;-70
2021/12/07 02:27:40;;;;;;;8.05;3.10;;;;;;;;;;5033472;28;20091;-71
2021/12/07 02:30:12;;;;;;;8.00;2.88;;;;;;;;;;5032337;28;20041;-71
2021/12/07 02:32:38;;;;;;;9.73;2.75;;;;;;;;;;5033392;28;20080;-72
2021/12/07 02:35:05;;;;;;;6.45;2.45;;;;;;;;;;5033540;28;20033;-75
2021/12/07 02:37:35;;;;;;;6.45;2.72;;;;;;;;;;5033428;28;20463;-73
2021/12/07 02:40:02;;;;;;;7.70;2.83;;;;;;;;;;5033352;28;20033;-73
2021/12/07 02:42:27;;;;;;;8.27;3.13;;;;;;;;;;5033057;28;20086;-70
2021/12/07 02:44:54;;;;;;;6.18;2.67;;;;;;;;;;5033236;28;20116;-70
2021/12/07 02:47:20;;;;;;;6.43;2.90;;;;;;;;;;5032967;28;20029;-73
2021/12/07 02:49:46;;;;;;;7.38;2.95;;;;;;;;;;5033033;28;20040;-71
2021/12/07 02:52:13;;;;;;;8.23;2.92;;;;;;;;;;5033417;28;20029;-70
2021/12/07 02:54:44;;;;;;;8.50;3.00;;;;;;;;;;5032678;28;20124;-70
2021/12/07 02:57:16;;;;;;;5.10;2.55;;;;;;;;;;5033385;28;20044;-73
2021/12/07 02:59:46;;;;;;;5.38;2.30;;;;;;;;;;5033156;28;20112;-71
2021/12/07 03:02:13;;;;;;;6.28;2.50;;;;;;;;;;5032294;28;20042;-70
2021/12/07 03:04:50;;;;;;;6.03;2.67;;;;;;;;;;5035242;28;20051;-71
2021/12/07 03:26:08;;;;;;;3.97;1.95;;;;;;;;;;5036746;28;20420;-71
2021/12/07 03:28:43;;;;;;;4.55;1.80;;;;;;;;;;5036712;28;20025;-73
2021/12/07 03:31:09;;;;;;;3.70;1.88;;;;;;;;;;5035202;28;20065;-70
2021/12/07 03:33:36;;;;;;;4.20;2.10;;;;;;;;;;5036296;28;20116;-73
2021/12/07 03:36:04;;;;;;;4.18;1.70;;;;;;;;;;5036569;28;20103;-72
2021/12/07 03:38:29;;;;;;;4.47;1.80;;;;;;;;;;5036623;28;20083;-70
2021/12/07 03:40:55;;;;;;;3.72;1.80;;;;;;;;;;5036407;28;20037;-72
2021/12/07 03:43:21;;;;;;;3.85;1.75;;;;;;;;;;5036345;28;20044;-72
2021/12/07 03:45:47;;;;;;;5.22;1.90;;;;;;;;;;5036194;28;20029;-71
2021/12/07 03:48:13;;;;;;;4.15;1.80;;;;;;;;;;5036387;28;20036;-70
2021/12/07 03:50:40;;;;;;;4.05;1.92;;;;;;;;;;5036257;28;20465;-72
2021/12/07 03:53:07;;;;;;;3.85;1.67;;;;;;;;;;5036041;28;20047;-71
2021/12/07 03:55:33;;;;;;;3.97;1.88;;;;;;;;;;5036393;28;20037;-70
2021/12/07 03:57:59;;;;;;;4.10;1.70;;;;;;;;;;5036202;28;20056;-71
2021/12/07 04:00:27;;;;;;;4.53;1.60;;;;;;;;;;5035965;28;20398;-70
2021/12/07 04:02:54;;;;;;;3.20;1.60;;;;;;;;;;5035855;28;20044;-73
2021/12/07 04:05:22;;;;;;;4.78;1.73;;;;;;;;;;5036121;28;20056;-70
2021/12/07 04:07:49;;;;;;;5.05;1.70;;;;;;;;;;5035820;28;20138;-71
2021/12/07 04:10:18;;;;;;;4.60;1.88;;;;;;;;;;5036050;28;20037;-72
2021/12/07 04:12:44;;;;;;;3.35;1.60;;;;;;;;;;5035805;28;20025;-72
2021/12/07 04:15:13;;;;;;;3.92;1.88;;;;;;;;;;5034514;28;20058;-70
2021/12/07 04:17:38;;;;;;;5.63;1.60;;;;;;;;;;5035743;28;20644;-73
2021/12/07 04:20:06;;;;;;;5.90;1.83;;;;;;;;;;5035874;28;20037;-73
2021/12/07 04:22:32;;;;;;;4.57;1.80;;;;;;;;;;5034819;28;20040;-71
2021/12/07 04:24:58;;;;;;;4.10;1.60;;;;;;;;;;5035384;28;20041;-72
2021/12/07 04:27:23;;;;;;;4.13;2.10;;;;;;;;;;5035710;28;20117;-72
2021/12/07 04:29:49;;;;;;;4.50;1.80;;;;;;;;;;5033607;28;20084;-70
2021/12/07 04:32:15;;;;;;;3.83;1.55;;;;;;;;;;5035800;28;20438;-73
2021/12/07 04:34:40;;;;;;;4.05;1.60;;;;;;;;;;5035251;28;20033;-71
2021/12/07 04:37:06;;;;;;;4.20;1.60;;;;;;;;;;5035406;28;20470;-70
2021/12/07 04:39:32;;;;;;;4.80;1.77;;;;;;;;;;5035439;28;20044;-72
2021/12/07 04:41:57;;;;;;;6.28;2.03;;;;;;;;;;5035298;28;20044;-72
2021/12/07 04:44:24;;;;;;;4.05;1.75;;;;;;;;;;5035130;28;20033;-70
2021/12/07 04:57:47;;;;;;;3.20;1.50;;;;;;;;;;5034955;28;20493;-70
2021/12/07 05:00:22;;;;;;;3.35;1.60;;;;;;;;;;5035049;28;20026;-71
2021/12/07 05:02:56;;;;;;;3.00;1.45;;;;;;;;;;5034761;28;20029;-71
2021/12/07 05:05:25;;;;;;;3.38;1.60;;;;;;;;;;5034748;28;20025;-71
2021/12/07 05:07:55;;;;;;;5.13;1.77;;;;;;;;;;5034837;28;20041;-72
2021/12/07 05:10:29;;;;;;;4.80;1.63;;;;;;;;;;5034758;28;20484;-75
2021/12/07 05:15:54;;;;;;;3.47;1.75;;;;;;;;;;5034785;28;20056;-73
2021/12/07 05:18:37;;;;;;;5.60;1.70;;;;;;;;;;5034556;28;20103;-72
2021/12/07 05:39:50;;;;;;;6.47;2.30;;;;;;;;;;5034549;28;20044;-74
2021/12/07 05:42:15;;;;;;;7.18;2.28;;;;;;;;;;5034233;28;20164;-75
2021/12/07 05:44:42;;;;;;;5.35;2.33;;;;;;;;;;5034006;28;20431;-72
2021/12/07 05:47:08;;;;;;;4.53;2.38;;;;;;;;;;5033123;28;20053;-72
2021/12/07 05:49:34;;;;;;;4.20;1.80;;;;;;;;;;5034184;28;20025;-72
2021/12/07 05:52:00;;;;;;;3.97;2.00;;;;;;;;;;5033957;28;20048;-74
2021/12/07 05:54:26;;;;;;;6.07;2.03;;;;;;;;;;5033741;28;20083;-74
2021/12/07 05:56:51;;;;;;;7.70;2.03;;;;;;;;;;5033780;28;20382;-75
2021/12/07 05:59:18;;;;;;;4.82;2.15;;;;;;;;;;5034082;28;20112;-72
2021/12/07 06:01:43;;;;;;;6.07;2.00;;;;;;;;;;5033966;28;20037;-74
2021/12/07 06:04:09;;;;;;;5.47;2.10;;;;;;;;;;5033794;28;20037;-74
2021/12/07 06:06:35;;;;;;;4.20;1.90;;;;;;;;;;5033832;28;20035;-71
2021/12/07 06:09:01;;;;;;;5.80;2.20;;;;;;;;;;5033672;28;20083;-75
2021/12/07 06:11:27;;;;;;;6.82;2.10;;;;;;;;;;5033642;28;20072;-72
2021/12/07 06:13:54;;;;;;;4.47;1.95;;;;;;;;;;5033417;28;20084;-74
2021/12/07 06:16:19;;;;;;;4.93;2.15;;;;;;;;;;5033627;28;20033;-75
2021/12/07 06:18:46;;;;;;;6.88;2.40;;;;;;;;;;5033571;28;20022;-74
2021/12/07 06:21:13;;;;;;;5.78;2.10;;;;;;;;;;5033687;28;20112;-73
2021/12/07 06:23:39;;;;;;;4.60;2.00;;;;;;;;;;5033514;28;20045;-74
2021/12/07 06:26:05;;;;;;;7.82;2.00;;;;;;;;;;5033182;28;20037;-73
2021/12/07 06:28:31;;;;;;;6.45;2.25;;;;;;;;;;5033626;28;20029;-74
2021/12/07 06:30:57;;;;;;;7.63;2.67;;;;;;;;;;5030517;28;20492;-74
2021/12/07 06:33:25;;;;;;;3.67;1.80;;;;;;;;;;5033517;28;20449;-75
2021/12/07 06:35:57;;;;;;;6.28;2.10;;;;;;;;;;5033094;28;20117;-73
2021/12/07 06:38:27;;;;;;;7.30;2.03;;;;;;;;;;5033066;28;20044;-74
2021/12/07 06:40:53;;;;;;;5.30;2.33;;;;;;;;;;5032798;28;20095;-72
2021/12/07 06:43:19;;;;;;;6.70;2.22;;;;;;;;;;5033424;28;20033;-75
2021/12/07 06:45:45;;;;;;;5.45;2.40;;;;;;;;;;5033030;28;20030;-74
2021/12/07 06:48:11;;;;;;;8.48;2.35;;;;;;;;;;5033224;28;20026;-72
2021/12/07 06:50:36;;;;;;;4.07;2.20;;;;;;;;;;5033273;28;20022;-71
2021/12/07 06:53:03;;;;;;;5.10;2.10;;;;;;;;;;5033130;28;20033;-74
2021/12/07 06:55:29;;;;;;;6.82;2.35;;;;;;;;;;5033049;28;20044;-74
2021/12/07 06:57:55;;;;;;;7.43;2.60;;;;;;;;;;5033349;28;20108;-74
2021/12/07 07:00:21;;;;;;;7.93;2.90;;;;;;;;;;5033166;28;20443;-72
2021/12/07 07:02:47;;;;;;;10.27;2.90;;;;;;;;;;5033009;28;20454;-72
2021/12/07 07:05:13;;;;;;;5.70;2.15;;;;;;;;;;5032880;28;20029;-72
2021/12/07 07:07:40;;;;;;;8.10;2.72;;;;;;;;;;5033235;28;20033;-72
2021/12/07 07:10:08;;;;;;;7.80;2.45;;;;;;;;;;5032946;28;20390;-73
2021/12/07 07:12:34;;;;;;;9.57;2.83;;;;;;;;;;5032961;28;20079;-73
2021/12/07 07:15:00;;;;;;;6.60;2.20;;;;;;;;;;5032641;28;20045;-72
2021/12/07 07:17:26;;;;;;;5.97;2.03;;;;;;;;;;5032941;28;20045;-74
2021/12/07 07:19:51;;;;;;;12.48;2.67;;;;;;;;;;5032965;28;20091;-72
2021/12/07 07:22:17;;;;;;;9.45;2.40;;;;;;;;;;5033110;28;20029;-73
2021/12/07 07:24:43;;;;;;;6.30;2.35;;;;;;;;;;5032723;28;20446;-74
2021/12/07 07:27:08;;;;;;;6.25;2.40;;;;;;;;;;5015525;28;20037;-73
2021/12/07 07:29:34;;;;;;;10.77;2.60;;;;;;;;;;5032789;28;20469;-72
2021/12/07 07:32:00;;;;;;;13.65;2.80;;;;;;;;;;5032831;28;20536;-74
2021/12/07 07:34:26;;;;;;;13.02;3.03;;;;;;;;;;5032573;28;20052;-74
2021/12/07 07:36:51;;;;;;;5.32;2.45;;;;;;;;;;5032636;28;20022;-74
2021/12/07 07:39:17;;;;;;;9.88;2.70;;;;;;;;;;5028634;28;20368;-73
2021/12/07 07:41:43;;;;;;;9.30;2.40;;;;;;;;;;5028415;28;20450;-72
2021/12/07 07:44:08;;;;;;;8.88;2.50;;;;;;;;;;5032493;28;20034;-75
2021/12/07 07:46:34;;;;;;;9.75;2.70;;;;;;;;;;5032293;28;20038;-72
2021/12/07 07:49:00;;;;;;;10.32;3.33;;;;;;;;;;5032298;28;20033;-71
2021/12/07 07:51:26;;;;;;;14.23;3.95;;;;;;;;;;5034264;28;20033;-74
2021/12/07 07:53:54;;;;;;;26.98;6.15;;;;;;;;;;5036193;28;20111;-72
2021/12/07 07:56:20;;;;;;;22.90;6.53;;;;;;;;;;5036332;28;20026;-74
2021/12/07 07:58:46;;;;;;;25.02;6.90;;;;;;;;;;5051728;28;20045;-71
2021/12/07 08:01:12;;;;;;;21.02;5.97;;;;;;;;;;5036132;28;20112;-74
2021/12/07 08:03:38;;;;;;;19.00;5.47;;;;;;;;;;5035943;28;20117;-73
2021/12/07 08:06:03;;;;;;;14.02;4.60;;;;;;;;;;5035802;28;20167;-72
2021/12/07 08:08:29;;;;;;;14.57;3.13;;;;;;;;;;5036020;28;20041;-75
2021/12/07 08:10:55;;;;;;;8.00;2.55;;;;;;;;;;5035907;28;20029;-72
2021/12/07 08:13:21;;;;;;;6.85;1.95;;;;;;;;;;5035285;28;20131;-73
2021/12/07 08:15:49;;;;;;;6.80;1.83;;;;;;;;;;5035610;28;20129;-72
2021/12/07 08:18:15;;;;;;;6.57;2.28;;;;;;;;;;5035827;28;20033;-75
2021/12/07 08:20:42;;;;;;;8.70;2.63;;;;;;;;;;5035507;28;20501;-74
2021/12/07 08:23:08;;;;;;;9.07;3.28;;;;;;;;;;5035533;28;20052;-74
2021/12/07 08:25:37;;;;;;;11.57;3.80;;;;;;;;;;5035888;28;20037;-73
2021/12/07 08:28:07;;;;;;;13.70;4.57;;;;;;;;;;5035353;28;20033;-73
2021/12/07 08:30:33;;;;;;;16.27;4.85;;;;;;;;;;5035155;28;20041;-73
2021/12/07 08:32:59;;;;;;;22.13;5.03;;;;;;;;;;5035387;28;20071;-74
2021/12/07 08:35:25;;;;;;;17.27;4.72;;;;;;;;;;5035306;28;20127;-73
2021/12/07 08:37:50;;;;;;;18.23;5.15;;;;;;;;;;5035472;28;20025;-73
2021/12/07 08:40:22;;;;;;;12.65;4.63;;;;;;;;;;5035145;28;20037;-71
2021/12/07 08:42:49;;;;;;;17.67;5.10;;;;;;;;;;5035291;28;20107;-72
2021/12/07 08:45:15;;;;;;;20.63;5.68;;;;;;;;;;5035232;28;20447;-72
2021/12/07 08:47:41;;;;;;;15.93;5.03;;;;;;;;;;5035177;28;20462;-73
2021/12/07 08:50:11;;;;;;;17.65;5.18;;;;;;;;;;5035139;28;20108;-72
2021/12/07 08:52:37;;;;;;;9.52;3.40;;;;;;;;;;5035359;28;20535;-73
2021/12/07 09:00:15;;;;;;;6.47;2.47;;;;;;;;;;5034802;28;20102;-72
2021/12/07 09:02:41;;;;;;;8.90;2.40;;;;;;;;;;5034416;28;20043;-71
2021/12/07 09:05:07;;;;;;;8.63;2.47;;;;;;;;;;5034822;28;20467;-72
2021/12/07 09:07:32;;;;;;;10.02;2.20;;;;;;;;;;5034974;28;20025;-74
2021/12/07 09:09:58;;;;;;;8.95;2.40;;;;;;;;;;5034519;28;20040;-72
2021/12/07 09:12:24;;;;;;;8.40;2.33;;;;;;;;;;5034748;28;20378;-74
2021/12/07 09:14:52;;;;;;;6.47;2.47;;;;;;;;;;5034708;28;20053;-73
2021/12/07 09:17:18;;;;;;;12.95;2.67;;;;;;;;;;5034704;28;20025;-74
2021/12/07 09:19:43;;;;;;;7.10;2.45;;;;;;;;;;5034556;28;20348;-73
2021/12/07 09:22:09;;;;;;;7.07;2.50;;;;;;;;;;5034276;28;20044;-72
2021/12/07 09:24:35;;;;;;;6.50;2.70;;;;;;;;;;5034735;28;20033;-74
2021/12/07 09:27:03;;;;;;;10.98;3.03;;;;;;;;;;5034508;28;20374;-72
2021/12/07 09:29:28;;;;;;;11.05;3.03;;;;;;;;;;5033987;28;20062;-73
2021/12/07 09:31:55;;;;;;;16.90;4.43;;;;;;;;;;5030536;28;20114;-73
2021/12/07 09:34:21;;;;;;;10.70;3.70;;;;;;;;;;5034423;28;20030;-72
2021/12/07 09:36:46;;;;;;;11.95;3.72;;;;;;;;;;5034416;28;20160;-73
2021/12/07 09:39:15;;;;;;;7.70;3.72;;;;;;;;;;5034163;28;20104;-72
2021/12/07 09:41:42;;;;;;;12.32;3.72;;;;;;;;;;5034079;28;20552;-75
2021/12/07 09:44:08;;;;;;;8.40;3.70;;;;;;;;;;5034104;28;20029;-72
2021/12/07 09:46:35;;;;;;;11.48;4.35;;;;;;;;;;5034259;28;20026;-71
2021/12/07 09:49:02;;;;;;;8.73;3.35;;;;;;;;;;5033960;28;20398;-73
2021/12/07 09:51:28;;;;;;;9.02;3.33;;;;;;;;;;5033893;28;20033;-74
2021/12/07 09:53:56;;;;;;;10.02;3.90;;;;;;;;;;5034262;28;20099;-71
2021/12/07 09:56:23;;;;;;;6.80;3.60;;;;;;;;;;5033692;28;20104;-73
2021/12/07 09:58:51;;;;;;;9.23;4.60;;;;;;;;;;5034034;28;20033;-73
2021/12/07 10:01:17;;;;;;;9.00;3.80;;;;;;;;;;5033543;28;20060;-73
2021/12/07 10:03:44;;;;;;;10.15;2.90;;;;;;;;;;5033756;28;20458;-73
2021/12/07 10:06:10;;;;;;;5.47;2.08;;;;;;;;;;5032925;28;20037;-71
2021/12/07 10:08:37;;;;;;;3.65;1.35;;;;;;;;;;5033822;28;20116;-73
2021/12/07 10:11:05;;;;;;;9.40;3.00;;;;;;;;;;5033243;28;20033;-71
2021/12/07 10:13:32;;;;;;;6.97;3.20;;;;;;;;;;5032904;28;20046;-73
2021/12/07 10:16:00;;;;;;;5.93;2.83;;;;;;;;;;5033652;28;20087;-74
2021/12/07 10:18:31;;;;;;;9.35;3.30;;;;;;;;;;5033604;28;20094;-70
2021/12/07 10:21:14;;;;;;;8.20;3.00;;;;;;;;;;5033498;28;20087;-73
2021/12/07 10:23:48;;;;;;;5.20;2.53;;;;;;;;;;5033500;28;20398;-71
2021/12/07 10:26:24;;;;;;;12.18;2.80;;;;;;;;;;5033528;28;20029;-73
2021/12/07 10:28:59;;;;;;;6.97;2.50;;;;;;;;;;5033494;28;20167;-73
2021/12/07 10:31:35;;;;;;;5.45;2.13;;;;;;;;;;5028353;28;20033;-73
2021/12/07 10:34:07;;;;;;;4.82;2.17;;;;;;;;;;5033311;28;20525;-73
2021/12/07 10:36:44;;;;;;;6.93;2.40;;;;;;;;;;5033374;28;20033;-72
2021/12/07 10:39:19;;;;;;;7.78;2.22;;;;;;;;;;5033301;28;20090;-73
2021/12/07 10:41:58;;;;;;;5.13;2.50;;;;;;;;;;5033178;28;20175;-71
2021/12/07 10:44:29;;;;;;;5.90;2.03;;;;;;;;;;5033076;28;20094;-73
2021/12/07 10:46:59;;;;;;;4.93;1.70;;;;;;;;;;5033316;28;20021;-74
2021/12/07 10:49:51;;;;;;;6.68;1.90;;;;;;;;;;5033113;28;20033;-74
2021/12/07 10:52:46;;;;;;;4.53;2.10;;;;;;;;;;5033120;28;20029;-72
2021/12/07 10:55:15;;;;;;;5.60;2.03;;;;;;;;;;5033424;28;20061;-73
2021/12/07 10:57:57;;;;;;;4.18;1.98;;;;;;;;;;5033196;28;20044;-74
2021/12/07 11:00:29;;;;;;;4.82;1.88;;;;;;;;;;5033307;28;20045;-73
2021/12/07 11:03:05;;;;;;;10.18;1.83;;;;;;;;;;5033165;28;20104;-72
2021/12/07 11:05:44;;;;;;;5.13;2.20;;;;;;;;;;5033263;28;20041;-74
2021/12/07 11:08:11;;;;;;;4.63;1.70;;;;;;;;;;5033170;28;20506;-74
2021/12/07 11:10:47;;;;;;;6.68;1.67;;;;;;;;;;5032972;28;20041;-73
2021/12/07 11:13:21;;;;;;;7.00;1.55;;;;;;;;;;5032659;28;20131;-70
2021/12/07 11:15:59;;;;;;;6.65;1.85;;;;;;;;;;5033150;28;20095;-72
2021/12/07 11:18:36;;;;;;;5.95;1.58;;;;;;;;;;5032886;28;20025;-73
2021/12/07 11:21:10;;;;;;;5.35;1.42;;;;;;;;;;5032682;28;20029;-73
2021/12/07 11:23:45;;;;;;;4.57;1.20;;;;;;;;;;5031938;28;20030;-74
2021/12/07 11:32:01;;;;;;;7.45;1.40;;;;;;;;;;5031434;28;20091;-72
2021/12/07 11:34:31;;;;;;;4.97;1.50;;;;;;;;;;5034454;28;20095;-74
2021/12/07 11:37:02;;;;;;;4.13;1.40;;;;;;;;;;5036840;28;20111;-74
2021/12/07 11:39:31;;;;;;;6.78;1.23;;;;;;;;;;5036403;28;20029;-72
2021/12/07 11:42:14;;;;;;;3.70;1.30;;;;;;;;;;5036359;28;20032;-72
2021/12/07 11:45:06;;;;;;;9.75;1.30;;;;;;;;;;5036596;28;20454;-72
2021/12/07 11:47:46;;;;;;;2.80;1.10;;;;;;;;;;5036629;28;20128;-72
2021/12/07 11:50:30;;;;;;;3.97;1.27;;;;;;;;;;5036127;28;20025;-74
2021/12/07 11:53:03;;;;;;;3.97;1.00;;;;;;;;;;5035884;28;20034;-75
2021/12/07 11:55:30;;;;;;;4.45;1.35;;;;;;;;;;5036161;28;20037;-72
2021/12/07 11:57:56;;;;;;;4.60;1.17;;;;;;;;;;5036142;28;20100;-73
2021/12/07 12:00:26;;;;;;;4.28;1.20;;;;;;;;;;5035950;28;20459;-73
2021/12/07 12:02:52;;;;;;;7.28;1.30;;;;;;;;;;5035633;28;20423;-72
2021/12/07 12:05:19;;;;;;;5.00;1.50;;;;;;;;;;5035793;28;20112;-70
2021/12/07 12:07:46;;;;;;;4.28;1.30;;;;;;;;;;5036035;28;20079;-72
2021/12/07 12:10:13;;;;;;;3.97;1.13;;;;;;;;;;5035998;28;20514;-71
2021/12/07 12:13:01;;;;;;;3.45;1.20;;;;;;;;;;5035810;28;20421;-71
2021/12/07 12:15:53;;;;;;;2.25;1.13;;;;;;;;;;5035765;28;20037;-72
2021/12/07 12:18:35;;;;;;;3.60;1.20;;;;;;;;;;5036043;28;20025;-71
2021/12/07 12:21:15;;;;;;;3.92;1.00;;;;;;;;;;5035487;28;20114;-72
2021/12/07 12:24:06;;;;;;;5.95;1.40;;;;;;;;;;5035652;28;20036;-72
2021/12/07 12:26:34;;;;;;;4.65;1.30;;;;;;;;;;5035555;28;20036;-70
2021/12/07 12:29:00;;;;;;;4.00;1.00;;;;;;;;;;5035788;28;20072;-70
2021/12/07 12:31:43;;;;;;;4.03;1.10;;;;;;;;;;5044982;28;20532;-70
2021/12/07 12:34:34;;;;;;;2.63;1.20;;;;;;;;;;5035445;28;20025;-71
2021/12/07 12:37:15;;;;;;;2.95;1.23;;;;;;;;;;5034732;28;20088;-72
2021/12/07 12:39:46;;;;;;;4.90;1.38;;;;;;;;;;5035282;28;20037;-72
2021/12/07 12:42:18;;;;;;;3.38;1.30;;;;;;;;;;5035141;28;20033;-72
2021/12/07 12:44:44;;;;;;;7.35;1.40;;;;;;;;;;5035033;28;20087;-73
2021/12/07 12:47:09;;;;;;;6.10;1.27;;;;;;;;;;5035262;28;20030;-71
2021/12/07 12:49:38;;;;;;;4.50;1.38;;;;;;;;;;5035307;28;20036;-73
2021/12/07 12:52:04;;;;;;;3.35;1.33;;;;;;;;;;5034919;28;20095;-70
2021/12/07 12:54:39;;;;;;;2.75;1.33;;;;;;;;;;5035243;28;20489;-72
2021/12/07 12:57:15;;;;;;;8.80;1.50;;;;;;;;;;5035002;28;20030;-72
2021/12/07 12:59:45;;;;;;;6.53;2.00;;;;;;;;;;5034962;28;20029;-72
2021/12/07 13:02:12;;;;;;;3.47;1.50;;;;;;;;;;5034963;28;20032;-75
2021/12/07 13:04:38;;;;;;;3.90;1.45;;;;;;;;;;5034938;28;20124;-70
2021/12/07 13:09:39;;;;;;;3.50;1.20;;;;;;;;;;5035229;28;20454;-73
2021/12/07 13:12:15;;;;;;;3.75;1.38;;;;;;;;;;5034907;28;20095;-70
2021/12/07 13:14:50;;;;;;;5.90;1.48;;;;;;;;;;5034520;28;20119;-72
2021/12/07 13:17:29;;;;;;;8.05;1.60;;;;;;;;;;5034643;28;20163;-73
2021/12/07 13:20:06;;;;;;;4.15;1.30;;;;;;;;;;5034816;28;20029;-70
2021/12/07 13:22:47;;;;;;;5.53;1.55;;;;;;;;;;5034252;28;20120;-71
2021/12/07 13:25:35;;;;;;;4.15;1.58;;;;;;;;;;5034534;28;20026;-71
2021/12/07 13:28:04;;;;;;;5.57;1.70;;;;;;;;;;5034480;28;20037;-73
2021/12/07 13:30:45;;;;;;;5.82;2.03;;;;;;;;;;5028007;28;20129;-72
2021/12/07 13:33:21;;;;;;;7.78;2.67;;;;;;;;;;5033245;28;20385;-70
2021/12/07 13:35:49;;;;;;;4.45;1.40;;;;;;;;;;5034524;28;20034;-73
2021/12/07 13:38:21;;;;;;;5.97;1.70;;;;;;;;;;5034271;28;20025;-71
2021/12/07 13:40:52;;;;;;;5.75;1.30;;;;;;;;;;5034341;28;20030;-70
2021/12/07 13:43:37;;;;;;;4.45;1.60;;;;;;;;;;5034100;28;20112;-75
2021/12/07 13:46:16;;;;;;;8.30;1.50;;;;;;;;;;5034027;28;20029;-72
2021/12/07 13:48:44;;;;;;;5.45;1.50;;;;;;;;;;5034026;28;20025;-71
2021/12/07 13:51:12;;;;;;;7.30;1.65;;;;;;;;;;5034104;28;20021;-72
2021/12/07 13:53:40;;;;;;;7.65;1.55;;;;;;;;;;5034003;28;20030;-71
2021/12/07 13:56:06;;;;;;;9.85;2.22;;;;;;;;;;5033815;28;20029;-70
2021/12/07 13:58:56;;;;;;;10.07;3.30;;;;;;;;;;5033913;28;20073;-71
2021/12/07 14:01:25;;;;;;;9.85;4.32;;;;;;;;;;5033727;28;20022;-73
2021/12/07 14:03:51;;;;;;;12.00;4.25;;;;;;;;;;5033661;28;20091;-71
2021/12/07 14:06:17;;;;;;;8.38;2.85;;;;;;;;;;5033993;28;20044;-72
2021/12/07 14:08:43;;;;;;;18.13;8.13;;;;;;;;;;5033715;28;20061;-73
2021/12/07 14:11:13;;;;;;;10.40;4.88;;;;;;;;;;5033847;28;20469;-72
2021/12/07 14:13:44;;;;;;;9.05;3.95;;;;;;;;;;5033898;28;20256;-70
2021/12/07 14:16:09;;;;;;;;;;;;;;;;;;5033978;28;20025;-70
2021/12/07 14:18:38;;;;;;;4.60;2.17;;;;;;;;;;5033599;28;19983;-71
2021/12/07 14:21:05;;;;;;;4.63;2.50;;;;;;;;;;5033596;28;20449;-72
2021/12/07 14:23:35;;;;;;;6.00;2.40;;;;;;;;;;5033286;28;20033;-70
2021/12/07 14:26:13;;;;;;;5.80;2.57;;;;;;;;;;5033716;28;20030;-71
2021/12/07 14:28:44;;;;;;;5.55;2.20;;;;;;;;;;5033559;28;20124;-72
2021/12/07 14:31:24;;;;;;;9.60;3.15;;;;;;;;;;5026917;28;20057;-73
2021/12/07 14:33:54;;;;;;;6.97;2.22;;;;;;;;;;5032433;28;20044;-75
2021/12/07 14:36:23;;;;;;;8.97;2.00;;;;;;;;;;5033257;28;20516;-75
2021/12/07 14:38:53;;;;;;;7.13;2.30;;;;;;;;;;5033495;28;20029;-72
2021/12/07 14:41:21;;;;;;;12.70;2.20;;;;;;;;;;5033273;28;20037;-72
2021/12/07 14:43:47;;;;;;;12.43;2.90;;;;;;;;;;5033184;28;20501;-73
2021/12/07 14:46:15;;;;;;;10.48;2.50;;;;;;;;;;5033273;28;20065;-72
2021/12/07 14:48:42;;;;;;;10.88;2.63;;;;;;;;;;5033074;28;20068;-74
2021/12/07 14:51:28;;;;;;;10.18;5.30;;;;;;;;;;5033344;28;20037;-71
2021/12/07 14:53:56;;;;;;;18.75;7.40;;;;;;;;;;5032933;28;20112;-73
2021/12/07 14:56:25;;;;;;;17.48;6.13;;;;;;;;;;5031963;28;20386;-73
2021/12/07 14:58:53;;;;;;;11.73;4.90;;;;;;;;;;5033355;28;20037;-72
2021/12/07 15:01:23;;;;;;;6.63;3.13;;;;;;;;;;5036415;28;20459;-70
2021/12/07 15:03:54;;;;;;;7.63;4.00;;;;;;;;;;5037041;28;20037;-72
2021/12/07 15:06:22;;;;;;;8.15;3.67;;;;;;;;;;5037048;28;20059;-72
2021/12/07 15:08:48;;;;;;;10.18;4.78;;;;;;;;;;5036270;28;20033;-70
2021/12/07 15:11:14;;;;;;;18.50;8.98;;;;;;;;;;5037058;28;20025;-73
2021/12/07 15:13:40;;;;;;;17.17;7.50;;;;;;;;;;5036545;28;20064;-70
2021/12/07 15:16:09;;;;;;;10.00;5.25;;;;;;;;;;5036818;28;20351;-74
2021/12/07 15:18:41;;;;;;;12.25;4.40;;;;;;;;;;5036948;28;20037;-72
2021/12/07 15:21:21;;;;;;;8.93;4.15;;;;;;;;;;5036898;28;20470;-71
2021/12/07 15:23:49;;;;;;;12.90;4.00;;;;;;;;;;5036674;28;20486;-75
2021/12/07 15:26:16;;;;;;;19.55;5.57;;;;;;;;;;5036775;28;20029;-70
2021/12/07 15:29:00;;;;;;;12.00;3.50;;;;;;;;;;5036956;28;20025;-71
2021/12/07 15:31:29;;;;;;;9.48;2.90;;;;;;;;;;5029311;28;20025;-71
2021/12/07 15:33:56;;;;;;;13.82;3.90;;;;;;;;;;5036412;28;20029;-72
2021/12/07 15:36:25;;;;;;;17.13;4.88;;;;;;;;;;5036423;28;20025;-72
2021/12/07 15:39:06;;;;;;;18.48;7.45;;;;;;;;;;5036622;28;20494;-72
2021/12/07 15:41:32;;;;;;;17.50;5.97;;;;;;;;;;5036298;28;20175;-74
2021/12/07 15:43:58;;;;;;;16.52;7.25;;;;;;;;;;5036456;28;20085;-72
2021/12/07 15:46:25;;;;;;;21.83;7.50;;;;;;;;;;5036391;28;20014;-73
2021/12/07 15:48:54;;;;;;;24.08;7.30;;;;;;;;;;5036415;28;20084;-72
2021/12/07 15:51:20;;;;;;;22.42;7.68;;;;;;;;;;5036087;28;20398;-71
2021/12/07 15:53:45;;;;;;;20.25;6.65;;;;;;;;;;5036129;28;20470;-72
2021/12/07 15:56:19;;;;;;;17.55;7.07;;;;;;;;;;5036155;28;20029;-74
2021/12/07 15:58:46;;;;;;;16.27;7.32;;;;;;;;;;5036230;28;20386;-70
2021/12/07 16:01:12;;;;;;;25.23;8.82;;;;;;;;;;5036099;28;20033;-72
2021/12/07 16:03:49;;;;;;;18.67;7.97;;;;;;;;;;5035709;28;20040;-72
2021/12/07 16:06:27;;;;;;;17.27;7.15;;;;;;;;;;5035989;28;20025;-75
2021/12/07 16:08:53;;;;;;;20.73;7.15;;;;;;;;;;5036071;28;20083;-72
2021/12/07 16:11:22;;;;;;;16.02;6.82;;;;;;;;;;5034706;28;20036;-74
2021/12/07 16:13:58;;;;;;;26.02;8.90;;;;;;;;;;5035619;28;20046;-74
2021/12/07 16:16:26;;;;;;;20.33;8.70;;;;;;;;;;5035603;28;20099;-73
2021/12/07 16:18:54;;;;;;;21.33;8.55;;;;;;;;;;5036109;28;20029;-72
2021/12/07 16:21:21;;;;;;;22.92;9.35;;;;;;;;;;5035769;28;20029;-75
2021/12/07 16:23:50;;;;;;;21.83;9.63;;;;;;;;;;5035599;28;20033;-74
2021/12/07 16:26:16;;;;;;;24.33;10.00;;;;;;;;;;5035739;28;20064;-75
2021/12/07 16:28:51;;;;;;;20.95;8.25;;;;;;;;;;5034271;28;20413;-72
2021/12/07 16:31:17;;;;;;;22.52;8.48;;;;;;;;;;5027820;28;20048;-72
2021/12/07 16:33:46;;;;;;;21.80;8.10;;;;;;;;;;5034478;28;20087;-74
2021/12/07 16:36:14;;;;;;;17.25;7.80;;;;;;;;;;5035508;28;20090;-75